createdAt,value
2017-06-19T00:00:11.104Z,101843.58
2017-06-19T00:02:43.564Z,101846.63
2017-06-19T00:05:16.152Z,101836.27
2017-06-19T00:07:48.335Z,101835.95
2017-06-19T00:10:21.979Z,101836.47
2017-06-19T00:12:54.115Z,101836.83
2017-06-19T00:15:26.403Z,101837.70
2017-06-19T00:17:58.715Z,101832.77
2017-06-19T00:20:31.127Z,101835.57
2017-06-19T00:23:09.620Z,101836.86
2017-06-19T00:25:41.600Z,101831.14
2017-06-19T00:28:13.971Z,101833.34
2017-06-19T00:30:46.429Z,101827.91
2017-06-19T00:33:18.740Z,101829.91
2017-06-19T00:35:51.040Z,101833.72
2017-06-19T00:38:23.557Z,101829.78
2017-06-19T00:40:56.153Z,101826.25
2017-06-19T00:43:28.305Z,101834.11
2017-06-19T00:46:00.524Z,101828.92
2017-06-19T00:48:33.480Z,101832.88
2017-06-19T00:51:05.340Z,101831.23
2017-06-19T00:53:37.672Z,101832.09
2017-06-19T00:56:10.116Z,101824.90
2017-06-19T00:58:42.269Z,101826.11
2017-06-19T01:01:14.420Z,101824.69
2017-06-19T01:03:47.532Z,101827.70
2017-06-19T01:06:20.690Z,101832.16
2017-06-19T01:08:52.616Z,101827.64
2017-06-19T01:11:24.992Z,101825.41
2017-06-19T01:13:57.552Z,101826.45
2017-06-19T01:16:29.605Z,101825.35
2017-06-19T01:19:01.920Z,101827.88
2017-06-19T01:21:34.209Z,101826.22
2017-06-19T01:24:06.544Z,101820.61
2017-06-19T01:26:38.820Z,101821.78
2017-06-19T01:29:11.360Z,101820.40
2017-06-19T01:31:43.448Z,101821.97
2017-06-19T01:34:16.983Z,101818.95
2017-06-19T01:36:49.242Z,101816.59
2017-06-19T01:39:21.980Z,101813.77
2017-06-19T01:41:54.496Z,101818.80
2017-06-19T01:44:27.077Z,101815.39
2017-06-19T01:46:59.356Z,101817.25
2017-06-19T01:49:31.724Z,101813.67
2017-06-19T01:52:04.085Z,101817.48
2017-06-19T01:54:36.451Z,101815.94
2017-06-19T01:57:08.796Z,101818.16
2017-06-19T01:59:41.319Z,101819.67
2017-06-19T02:02:13.727Z,101826.49
2017-06-19T02:04:46.059Z,101827.68
2017-06-19T02:07:18.372Z,101821.67
2017-06-19T02:09:50.771Z,101820.50
2017-06-19T02:12:23.088Z,101818.12
2017-06-19T02:14:55.400Z,101819.38
2017-06-19T02:17:27.732Z,101815.30
2017-06-19T02:20:00.104Z,101814.05
2017-06-19T02:22:32.344Z,101818.77
2017-06-19T02:25:04.744Z,101811.48
2017-06-19T02:27:38.023Z,101814.91
2017-06-19T02:30:10.476Z,101816.64
2017-06-19T02:32:42.708Z,101808.36
2017-06-19T02:35:15.092Z,101812.30
2017-06-19T02:37:47.460Z,101815.02
2017-06-19T02:40:19.763Z,101810.02
2017-06-19T02:42:52.237Z,101808.18
2017-06-19T02:45:24.638Z,101800.30
2017-06-19T02:47:57.051Z,101803.66
2017-06-19T02:50:29.471Z,101796.47
2017-06-19T02:53:01.823Z,101794.08
2017-06-19T02:55:34.194Z,101799.31
2017-06-19T02:58:06.494Z,101801.89
2017-06-19T03:00:38.827Z,101798.13
2017-06-19T03:03:11.193Z,101801.11
2017-06-19T03:05:43.566Z,101806.19
2017-06-19T03:08:15.916Z,101800.55
2017-06-19T03:10:48.327Z,101802.89
2017-06-19T03:13:20.676Z,101801.31
2017-06-19T03:15:53.099Z,101800.41
2017-06-19T03:18:25.444Z,101808.36
2017-06-19T03:20:57.977Z,101802.84
2017-06-19T03:23:30.168Z,101796.52
2017-06-19T03:26:02.575Z,101789.08
2017-06-19T03:28:34.984Z,101795.61
2017-06-19T03:31:07.323Z,101791.66
2017-06-19T03:33:39.652Z,101791.23
2017-06-19T03:36:12.097Z,101789.61
2017-06-19T03:38:44.412Z,101787.73
2017-06-19T03:41:16.687Z,101791.48
2017-06-19T03:43:48.849Z,101784.58
2017-06-19T03:46:21.091Z,101780.39
2017-06-19T03:48:53.460Z,101783.67
2017-06-19T03:51:25.779Z,101786.24
2017-06-19T03:53:58.350Z,101788.20
2017-06-19T03:56:30.828Z,101789.92
2017-06-19T03:59:02.897Z,101793.01
2017-06-19T04:01:35.256Z,101798.53
2017-06-19T04:04:07.624Z,101801.31
2017-06-19T04:06:40.006Z,101806.05
2017-06-19T04:09:12.248Z,101803.13
2017-06-19T04:11:44.534Z,101800.53
2017-06-19T04:14:16.906Z,101800.97
2017-06-19T04:16:49.301Z,101798.17
2017-06-19T04:19:21.615Z,101799.79
2017-06-19T04:21:54.172Z,101798.03
2017-06-19T04:24:26.405Z,101802.69
2017-06-19T04:26:59.102Z,101801.95
2017-06-19T04:29:31.315Z,101791.50
2017-06-19T04:32:03.883Z,101788.41
2017-06-19T04:34:36.141Z,101787.53
2017-06-19T04:37:08.525Z,101784.11
2017-06-19T04:39:40.942Z,101786.03
2017-06-19T04:42:13.372Z,101785.17
2017-06-19T04:44:45.826Z,101778.46
2017-06-19T04:47:18.210Z,101781.55
2017-06-19T04:49:50.500Z,101782.00
2017-06-19T04:52:23.016Z,101777.93
2017-06-19T04:54:55.339Z,101776.02
2017-06-19T04:57:28.205Z,101781.20
2017-06-19T05:00:00.032Z,101779.64
2017-06-19T05:02:32.337Z,101778.63
2017-06-19T05:05:04.692Z,101770.72
2017-06-19T05:07:38.134Z,101773.73
2017-06-19T05:10:10.581Z,101776.52
2017-06-19T05:12:42.976Z,101779.79
2017-06-19T05:15:15.415Z,101778.83
2017-06-19T05:17:47.811Z,101780.32
2017-06-19T05:20:20.276Z,101775.98
2017-06-19T05:22:52.768Z,101782.53
2017-06-19T05:25:25.160Z,101778.92
2017-06-19T05:27:57.549Z,101774.05
2017-06-19T05:30:29.859Z,101782.00
2017-06-19T05:33:02.255Z,101774.05
2017-06-19T05:35:34.956Z,101775.30
2017-06-19T05:38:07.291Z,101778.16
2017-06-19T05:40:39.396Z,101781.77
2017-06-19T05:43:11.720Z,101779.27
2017-06-19T05:45:44.168Z,101782.00
2017-06-19T05:48:16.740Z,101776.63
2017-06-19T05:50:48.981Z,101781.12
2017-06-19T05:53:21.321Z,101782.45
2017-06-19T05:55:53.736Z,101783.50
2017-06-19T05:58:27.137Z,101783.69
2017-06-19T06:00:59.572Z,101783.59
2017-06-19T06:03:31.980Z,101780.66
2017-06-19T06:06:04.420Z,101783.30
2017-06-19T06:08:36.831Z,101784.73
2017-06-19T06:11:09.172Z,101774.12
2017-06-19T06:13:41.581Z,101766.08
2017-06-19T06:16:13.936Z,101771.19
2017-06-19T06:18:47.314Z,101772.97
2017-06-19T06:21:19.697Z,101775.48
2017-06-19T06:23:52.012Z,101769.01
2017-06-19T06:26:24.179Z,101777.55
2017-06-19T06:28:56.812Z,101772.20
2017-06-19T06:31:29.004Z,101768.66
2017-06-19T06:34:01.436Z,101773.06
2017-06-19T06:36:33.739Z,101766.44
2017-06-19T06:39:07.322Z,101773.17
2017-06-19T06:41:40.462Z,101768.94
2017-06-19T06:44:13.987Z,101764.01
2017-06-19T06:46:46.388Z,101759.33
2017-06-19T06:49:18.843Z,101760.48
2017-06-19T06:51:51.215Z,101759.51
2017-06-19T06:54:23.928Z,101763.36
2017-06-19T06:56:55.800Z,101758.30
2017-06-19T06:59:28.237Z,101767.52
2017-06-19T07:02:00.684Z,101766.95
2017-06-19T07:04:33.130Z,101763.25
2017-06-19T07:07:05.667Z,101763.19
2017-06-19T07:09:38.121Z,101764.39
2017-06-19T07:12:10.813Z,101762.80
2017-06-19T07:14:43.007Z,101763.30
2017-06-19T07:17:15.379Z,101757.05
2017-06-19T07:19:47.779Z,101757.06
2017-06-19T07:22:20.876Z,101756.42
2017-06-19T07:24:52.756Z,101756.66
2017-06-19T07:27:24.941Z,101763.25
2017-06-19T07:29:57.327Z,101758.43
2017-06-19T07:32:29.719Z,101763.70
2017-06-19T07:35:02.191Z,101758.56
2017-06-19T07:37:34.641Z,101757.13
2017-06-19T07:40:07.275Z,101759.42
2017-06-19T07:42:39.540Z,101758.22
2017-06-19T07:45:12.967Z,101756.90
2017-06-19T07:47:45.399Z,101757.58
2017-06-19T07:50:17.843Z,101755.36
2017-06-19T07:52:50.306Z,101756.38
2017-06-19T07:55:22.680Z,101746.77
2017-06-19T07:57:55.380Z,101745.59
2017-06-19T08:00:27.462Z,101745.41
2017-06-19T08:02:59.751Z,101741.14
2017-06-19T08:05:32.480Z,101743.28
2017-06-19T08:08:04.528Z,101737.47
2017-06-19T08:10:36.791Z,101734.98
2017-06-19T08:13:09.172Z,101734.39
2017-06-19T08:15:41.575Z,101720.17
2017-06-19T08:18:13.887Z,101726.48
2017-06-19T08:20:46.420Z,101724.25
2017-06-19T08:23:25.014Z,101721.00
2017-06-19T08:25:57.278Z,101717.82
2017-06-19T08:28:29.609Z,101717.39
2017-06-19T08:31:02.016Z,101715.00
2017-06-19T08:33:34.299Z,101707.95
2017-06-19T08:36:06.568Z,101716.31
2017-06-19T08:38:39.006Z,101709.61
2017-06-19T08:41:11.479Z,101706.09
2017-06-19T08:43:43.896Z,101698.84
2017-06-19T08:46:16.326Z,101694.27
2017-06-19T08:48:48.780Z,101697.77
2017-06-19T08:51:21.294Z,101688.17
2017-06-19T08:53:53.474Z,101693.78
2017-06-19T08:56:25.853Z,101684.89
2017-06-19T08:58:58.320Z,101680.90
2017-06-19T09:01:30.693Z,101681.77
2017-06-19T09:04:02.926Z,101682.62
2017-06-19T09:06:35.336Z,101685.88
2017-06-19T09:09:07.579Z,101675.60
2017-06-19T09:11:39.892Z,101683.64
2017-06-19T09:14:12.141Z,101679.18
2017-06-19T09:16:44.609Z,101678.47
2017-06-19T09:19:16.957Z,101670.64
2017-06-19T09:21:49.387Z,101680.06
2017-06-19T09:24:21.748Z,101669.27
2017-06-19T09:26:54.409Z,101665.39
2017-06-19T09:29:27.724Z,101667.40
2017-06-19T09:32:01.092Z,101666.20
2017-06-19T09:34:33.597Z,101656.30
2017-06-19T09:37:06.080Z,101646.76
2017-06-19T09:39:38.252Z,101656.48
2017-06-19T09:42:10.711Z,101650.48
2017-06-19T09:44:42.913Z,101651.78
2017-06-19T09:47:15.428Z,101653.31
2017-06-19T09:49:47.791Z,101649.23
2017-06-19T09:52:20.332Z,101650.51
2017-06-19T09:54:52.871Z,101644.97
2017-06-19T09:57:25.077Z,101640.87
2017-06-19T09:59:57.480Z,101644.48
2017-06-19T10:02:29.900Z,101636.77
2017-06-19T10:05:02.188Z,101632.86
2017-06-19T10:07:34.724Z,101635.27
2017-06-19T10:10:07.153Z,101626.30
2017-06-19T10:12:39.724Z,101624.92
2017-06-19T10:15:11.831Z,101621.39
2017-06-19T10:17:45.179Z,101622.63
2017-06-19T10:20:17.515Z,101618.33
2017-06-19T10:22:50.010Z,101620.86
2017-06-19T10:25:22.445Z,101615.31
2017-06-19T10:27:54.987Z,101612.13
2017-06-19T10:30:27.346Z,101607.84
2017-06-19T10:32:59.684Z,101604.13
2017-06-19T10:35:32.062Z,101605.05
2017-06-19T10:38:04.435Z,101601.90
2017-06-19T10:40:36.832Z,101600.33
2017-06-19T10:43:09.220Z,101595.57
2017-06-19T10:45:41.680Z,101596.96
2017-06-19T10:48:14.136Z,101597.89
2017-06-19T10:50:46.365Z,101587.66
2017-06-19T10:53:18.958Z,101593.77
2017-06-19T10:55:51.273Z,101584.95
2017-06-19T10:58:23.815Z,101588.63
2017-06-19T11:00:56.637Z,101573.01
2017-06-19T11:03:29.360Z,101570.36
2017-06-19T11:06:01.661Z,101566.12
2017-06-19T11:08:34.108Z,101565.39
2017-06-19T11:11:06.288Z,101556.82
2017-06-19T11:13:38.742Z,101570.39
2017-06-19T11:16:11.072Z,101567.23
2017-06-19T11:18:43.351Z,101561.89
2017-06-19T11:21:15.591Z,101548.76
2017-06-19T11:23:48.020Z,101548.55
2017-06-19T11:26:20.353Z,101538.52
2017-06-19T11:28:52.847Z,101544.20
2017-06-19T11:31:25.244Z,101540.39
2017-06-19T11:33:57.760Z,101540.38
2017-06-19T11:36:30.856Z,101533.12
2017-06-19T11:39:03.564Z,101530.73
2017-06-19T11:41:35.983Z,101523.29
2017-06-19T11:44:08.435Z,101525.25
2017-06-19T11:46:40.713Z,101525.85
2017-06-19T11:49:13.147Z,101530.56
2017-06-19T11:51:45.506Z,101528.71
2017-06-19T11:54:17.736Z,101520.66
2017-06-19T11:56:49.985Z,101509.02
2017-06-19T11:59:22.366Z,101515.60
2017-06-19T12:01:54.640Z,101520.33
2017-06-19T12:04:26.961Z,101503.45
2017-06-19T12:06:59.561Z,101507.52
2017-06-19T12:09:31.785Z,101499.81
2017-06-19T12:12:04.117Z,101499.93
2017-06-19T12:14:36.557Z,101492.19
2017-06-19T12:17:08.887Z,101495.14
2017-06-19T12:19:41.293Z,101491.67
2017-06-19T12:22:13.624Z,101491.63
2017-06-19T12:24:46.024Z,101487.97
2017-06-19T12:27:18.284Z,101483.77
2017-06-19T12:29:51.541Z,101486.39
2017-06-19T12:32:24.180Z,101474.97
2017-06-19T12:34:56.625Z,101472.00
2017-06-19T12:37:28.934Z,101471.17
2017-06-19T12:40:02.232Z,101471.52
2017-06-19T12:42:34.669Z,101465.10
2017-06-19T12:45:06.988Z,101465.64
2017-06-19T12:47:39.417Z,101455.51
2017-06-19T12:50:11.892Z,101458.17
2017-06-19T12:52:44.256Z,101447.80
2017-06-19T12:55:16.614Z,101439.95
2017-06-19T12:57:48.965Z,101436.97
2017-06-19T13:00:21.520Z,101440.37
2017-06-19T13:02:53.618Z,101432.55
2017-06-19T13:05:26.032Z,101424.78
2017-06-19T13:07:58.355Z,101427.73
2017-06-19T13:10:30.726Z,101419.95
2017-06-19T13:13:03.335Z,101421.72
2017-06-19T13:15:35.736Z,101421.15
2017-06-19T13:18:07.818Z,101416.84
2017-06-19T13:20:40.816Z,101417.69
2017-06-19T13:23:12.928Z,101412.75
2017-06-19T13:25:45.131Z,101409.23
2017-06-19T13:28:17.469Z,101410.75
2017-06-19T13:30:50.028Z,101410.36
2017-06-19T13:33:22.347Z,101415.06
2017-06-19T13:35:55.156Z,101412.44
2017-06-19T13:38:27.150Z,101415.10
2017-06-19T13:40:59.528Z,101404.06
2017-06-19T13:43:31.903Z,101401.31
2017-06-19T13:46:05.148Z,101393.91
2017-06-19T13:48:37.850Z,101394.61
2017-06-19T13:51:10.288Z,101388.52
2017-06-19T13:53:43.565Z,101385.47
2017-06-19T13:56:16.183Z,101388.79
2017-06-19T13:58:48.704Z,101379.16
2017-06-19T14:01:20.960Z,101376.89
2017-06-19T14:03:53.295Z,101368.90
2017-06-19T14:06:26.855Z,101378.80
2017-06-19T14:08:59.367Z,101371.12
2017-06-19T14:11:31.723Z,101352.02
2017-06-19T14:14:04.160Z,101350.55
2017-06-19T14:16:36.780Z,101348.52
2017-06-19T14:19:09.169Z,101349.57
2017-06-19T14:21:41.876Z,101341.69
2017-06-19T14:24:14.011Z,101343.42
2017-06-19T14:26:46.471Z,101337.53
2017-06-19T14:29:18.927Z,101328.31
2017-06-19T14:31:52.264Z,101331.45
2017-06-19T14:34:24.892Z,101329.97
2017-06-19T14:36:57.341Z,101332.77
2017-06-19T14:39:29.652Z,101328.74
2017-06-19T14:42:02.063Z,101320.16
2017-06-19T14:44:34.484Z,101317.38
2017-06-19T14:47:07.244Z,101317.68
2017-06-19T14:49:46.252Z,101320.34
2017-06-19T14:52:18.706Z,101320.42
2017-06-19T14:54:51.042Z,101325.69
2017-06-19T14:57:23.594Z,101314.23
2017-06-19T14:59:55.883Z,101316.60
2017-06-19T15:02:28.312Z,101308.41
2017-06-19T15:05:00.696Z,101307.22
2017-06-19T15:07:33.343Z,101305.95
2017-06-19T15:10:05.489Z,101305.56
2017-06-19T15:12:37.860Z,101301.45
2017-06-19T15:15:10.288Z,101295.50
2017-06-19T15:17:42.648Z,101300.61
2017-06-19T15:20:15.004Z,101297.52
2017-06-19T15:22:47.583Z,101296.75
2017-06-19T15:25:20.211Z,101292.23
2017-06-19T15:27:52.664Z,101288.00
2017-06-19T15:30:25.132Z,101285.55
2017-06-19T15:32:57.494Z,101281.64
2017-06-19T15:35:30.119Z,101281.16
2017-06-19T15:38:03.143Z,101280.13
2017-06-19T15:40:35.507Z,101281.27
2017-06-19T15:43:07.940Z,101270.03
2017-06-19T15:45:40.606Z,101267.00
2017-06-19T15:48:12.752Z,101269.94
2017-06-19T15:50:46.164Z,101262.80
2017-06-19T15:53:18.591Z,101264.84
2017-06-19T15:55:50.895Z,101264.71
2017-06-19T15:58:23.279Z,101251.65
2017-06-19T16:00:55.696Z,101250.86
2017-06-19T16:03:28.100Z,101252.14
2017-06-19T16:06:00.371Z,101247.47
2017-06-19T16:08:32.924Z,101247.72
2017-06-19T16:11:05.501Z,101241.48
2017-06-19T16:13:37.616Z,101247.33
2017-06-19T16:16:09.996Z,101245.58
2017-06-19T16:18:42.456Z,101244.97
2017-06-19T16:21:14.751Z,101234.39
2017-06-19T16:23:47.235Z,101240.34
2017-06-19T16:26:19.537Z,101236.84
2017-06-19T16:28:52.047Z,101229.67
2017-06-19T16:31:24.320Z,101240.87
2017-06-19T16:33:56.808Z,101235.36
2017-06-19T16:36:29.165Z,101231.61
2017-06-19T16:39:01.556Z,101229.30
2017-06-19T16:41:33.964Z,101238.09
2017-06-19T16:44:06.516Z,101229.36
2017-06-19T16:46:38.956Z,101229.48
2017-06-19T16:49:11.385Z,101233.14
2017-06-19T16:51:43.798Z,101229.31
2017-06-19T16:54:16.250Z,101230.16
2017-06-19T16:56:48.689Z,101227.08
2017-06-19T16:59:21.309Z,101217.85
2017-06-19T17:01:53.404Z,101222.29
2017-06-19T17:04:25.767Z,101221.34
2017-06-19T17:06:58.103Z,101224.22
2017-06-19T17:09:30.415Z,101226.09
2017-06-19T17:12:02.800Z,101225.91
2017-06-19T17:14:35.194Z,101227.95
2017-06-19T17:17:07.711Z,101224.64
2017-06-19T17:19:40.007Z,101215.92
2017-06-19T17:22:12.222Z,101213.37
2017-06-19T17:24:44.651Z,101200.58
2017-06-19T17:27:16.972Z,101202.38
2017-06-19T17:29:49.304Z,101194.89
2017-06-19T17:32:21.621Z,101190.16
2017-06-19T17:34:54.137Z,101195.47
2017-06-19T17:37:26.252Z,101197.05
2017-06-19T17:39:58.571Z,101202.78
2017-06-19T17:42:30.736Z,101207.45
2017-06-19T17:45:03.108Z,101207.48
2017-06-19T17:47:35.379Z,101203.65
2017-06-19T17:50:08.824Z,101213.45
2017-06-19T17:52:41.149Z,101212.31
2017-06-19T17:55:13.501Z,101216.11
2017-06-19T17:57:45.925Z,101218.58
2017-06-19T18:00:18.221Z,101215.18
2017-06-19T18:02:50.583Z,101213.36
2017-06-19T18:05:22.903Z,101209.43
2017-06-19T18:07:55.223Z,101206.14
2017-06-19T18:10:27.608Z,101202.80
2017-06-19T18:12:59.975Z,101211.53
2017-06-19T18:15:32.359Z,101211.78
2017-06-19T18:18:04.780Z,101209.34
2017-06-19T18:20:37.148Z,101202.31
2017-06-19T18:23:09.692Z,101207.55
2017-06-19T18:25:41.977Z,101201.69
2017-06-19T18:28:14.313Z,101202.53
2017-06-19T18:30:47.476Z,101197.21
2017-06-19T18:33:20.021Z,101197.02
2017-06-19T18:35:52.381Z,101196.95
2017-06-19T18:38:24.744Z,101195.23
2017-06-19T18:40:57.358Z,101192.48
2017-06-19T18:43:29.644Z,101193.72
2017-06-19T18:46:02.136Z,101190.05
2017-06-19T18:48:34.721Z,101189.08
2017-06-19T18:51:07.103Z,101188.34
2017-06-19T18:53:39.776Z,101180.94
2017-06-19T18:56:11.896Z,101187.82
2017-06-19T18:58:44.424Z,101186.73
2017-06-19T19:01:16.914Z,101187.05
2017-06-19T19:03:49.384Z,101181.58
2017-06-19T19:06:21.773Z,101183.99
2017-06-19T19:08:54.063Z,101174.45
2017-06-19T19:11:26.429Z,101178.08
2017-06-19T19:13:58.802Z,101183.25
2017-06-19T19:16:31.284Z,101183.47
2017-06-19T19:19:03.632Z,101183.67
2017-06-19T19:21:36.136Z,101182.63
2017-06-19T19:24:08.445Z,101186.27
2017-06-19T19:26:41.358Z,101186.55
2017-06-19T19:29:13.213Z,101184.89
2017-06-19T19:31:45.725Z,101179.98
2017-06-19T19:34:18.054Z,101185.31
2017-06-19T19:36:50.665Z,101184.27
2017-06-19T19:39:22.673Z,101181.12
2017-06-19T19:41:55.098Z,101173.72
2017-06-19T19:44:27.699Z,101178.20
2017-06-19T19:46:59.971Z,101182.65
2017-06-19T19:49:32.270Z,101180.86
2017-06-19T19:52:04.616Z,101187.35
2017-06-19T19:54:36.977Z,101184.69
2017-06-19T19:57:09.480Z,101181.91
2017-06-19T19:59:41.664Z,101184.95
2017-06-19T20:02:15.061Z,101189.11
2017-06-19T20:04:47.388Z,101190.88
2017-06-19T20:07:19.943Z,101183.94
2017-06-19T20:09:52.309Z,101183.70
2017-06-19T20:12:24.725Z,101185.27
2017-06-19T20:14:57.071Z,101186.41
2017-06-19T20:17:29.511Z,101183.39
2017-06-19T20:20:01.788Z,101187.49
2017-06-19T20:22:34.080Z,101183.31
2017-06-19T20:25:06.347Z,101188.69
2017-06-19T20:27:38.840Z,101187.55
2017-06-19T20:30:10.900Z,101187.59
2017-06-19T20:32:43.149Z,101193.88
2017-06-19T20:35:15.437Z,101188.58
2017-06-19T20:37:47.651Z,101190.02
2017-06-19T20:40:19.909Z,101191.61
2017-06-19T20:42:52.285Z,101195.52
2017-06-19T20:45:24.616Z,101193.56
2017-06-19T20:47:56.919Z,101194.48
2017-06-19T20:50:29.052Z,101195.82
2017-06-19T20:53:01.475Z,101194.38
2017-06-19T20:55:33.668Z,101196.22
2017-06-19T20:58:06.078Z,101186.77
2017-06-19T21:00:38.226Z,101188.91
2017-06-19T21:03:10.512Z,101194.52
2017-06-19T21:05:42.803Z,101193.29
2017-06-19T21:08:15.327Z,101190.71
2017-06-19T21:10:47.539Z,101190.39
2017-06-19T21:13:19.881Z,101194.36
2017-06-19T21:15:52.331Z,101192.93
2017-06-19T21:18:25.052Z,101193.08
2017-06-19T21:20:57.182Z,101201.66
2017-06-19T21:23:29.708Z,101197.31
2017-06-19T21:26:02.072Z,101193.97
2017-06-19T21:28:34.508Z,101194.11
2017-06-19T21:31:06.811Z,101190.83
2017-06-19T21:33:39.118Z,101197.59
2017-06-19T21:36:11.460Z,101187.28
2017-06-19T21:38:43.759Z,101188.23
2017-06-19T21:41:16.208Z,101193.56
2017-06-19T21:43:48.429Z,101186.58
2017-06-19T21:46:20.652Z,101184.59
2017-06-19T21:48:53.060Z,101189.95
2017-06-19T21:51:25.428Z,101191.98
2017-06-19T21:53:57.975Z,101193.97
2017-06-19T21:56:30.472Z,101197.28
2017-06-19T21:59:02.629Z,101200.16
2017-06-19T22:01:34.849Z,101196.78
2017-06-19T22:04:07.284Z,101190.38
2017-06-19T22:06:39.689Z,101193.25
2017-06-19T22:09:12.036Z,101190.81
2017-06-19T22:11:45.117Z,101197.05
2017-06-19T22:14:17.659Z,101192.98
2017-06-19T22:16:49.956Z,101195.36
2017-06-19T22:19:22.196Z,101187.14
2017-06-19T22:22:00.714Z,101190.66
2017-06-19T22:24:33.068Z,101183.55
2017-06-19T22:27:05.498Z,101181.39
2017-06-19T22:29:37.717Z,101184.78
2017-06-19T22:32:10.137Z,101180.18
2017-06-19T22:34:42.479Z,101184.66
2017-06-19T22:37:14.700Z,101182.54
2017-06-19T22:39:47.163Z,101178.98
2017-06-19T22:42:19.555Z,101179.17
2017-06-19T22:44:52.063Z,101174.71
2017-06-19T22:47:24.464Z,101179.61
2017-06-19T22:49:56.848Z,101172.70
2017-06-19T22:52:29.068Z,101170.30
2017-06-19T22:55:01.496Z,101171.43
2017-06-19T22:57:34.620Z,101161.77
2017-06-19T23:00:06.484Z,101165.20
2017-06-19T23:02:38.903Z,101167.45
2017-06-19T23:05:11.324Z,101162.51
2017-06-19T23:07:43.679Z,101160.02
2017-06-19T23:10:16.124Z,101159.44
2017-06-19T23:12:49.276Z,101149.88
2017-06-19T23:15:21.912Z,101149.91
2017-06-19T23:17:54.128Z,101151.41
2017-06-19T23:20:26.473Z,101152.05
2017-06-19T23:22:58.708Z,101152.97
2017-06-19T23:25:31.034Z,101150.95
2017-06-19T23:28:03.391Z,101152.51
2017-06-19T23:30:36.808Z,101146.22
2017-06-19T23:33:09.223Z,101151.85
2017-06-19T23:35:41.686Z,101147.15
2017-06-19T23:38:13.989Z,101146.73
2017-06-19T23:40:46.451Z,101143.68
2017-06-19T23:43:18.813Z,101154.34
2017-06-19T23:45:51.288Z,101168.75
2017-06-19T23:48:24.367Z,101174.23
2017-06-19T23:50:57.208Z,101166.63
2017-06-19T23:53:29.595Z,101169.49
2017-06-19T23:56:01.972Z,101171.28
2017-06-19T23:58:34.313Z,101173.14
